sensor_id;sensor_type;location;lat;lon;timestamp;temperature;humidity
15483;DHT22;7843;50.330;7.312;2023-06-14T00:02:26;15.50;81.00
15483;DHT22;7843;50.330;7.312;2023-06-14T00:04:53;15.60;81.00
15483;DHT22;7843;50.330;7.312;2023-06-14T00:07:36;15.60;81.00
15483;DHT22;7843;50.330;7.312;2023-06-14T00:10:05;15.50;81.20
15483;DHT22;7843;50.330;7.312;2023-06-14T00:12:32;15.50;81.20
15483;DHT22;7843;50.330;7.312;2023-06-14T00:14:58;15.50;81.40
15483;DHT22;7843;50.330;7.312;2023-06-14T00:17:25;15.40;81.30
15483;DHT22;7843;50.330;7.312;2023-06-14T00:19:57;15.50;81.20
15483;DHT22;7843;50.330;7.312;2023-06-14T00:22:24;15.50;81.30
15483;DHT22;7843;50.330;7.312;2023-06-14T00:24:52;15.40;81.20
15483;DHT22;7843;50.330;7.312;2023-06-14T00:27:19;15.40;81.60
15483;DHT22;7843;50.330;7.312;2023-06-14T00:29:46;15.40;81.80
15483;DHT22;7843;50.330;7.312;2023-06-14T00:32:13;15.30;82.00
15483;DHT22;7843;50.330;7.312;2023-06-14T00:34:39;15.30;82.30
15483;DHT22;7843;50.330;7.312;2023-06-14T00:37:06;15.20;82.30
15483;DHT22;7843;50.330;7.312;2023-06-14T00:39:33;15.10;82.60
15483;DHT22;7843;50.330;7.312;2023-06-14T00:42:01;15.00;83.00
15483;DHT22;7843;50.330;7.312;2023-06-14T00:44:28;15.00;83.00
15483;DHT22;7843;50.330;7.312;2023-06-14T00:46:54;14.90;83.50
15483;DHT22;7843;50.330;7.312;2023-06-14T00:49:22;14.90;83.90
15483;DHT22;7843;50.330;7.312;2023-06-14T00:51:49;14.80;83.60
15483;DHT22;7843;50.330;7.312;2023-06-14T00:54:15;14.70;83.80
15483;DHT22;7843;50.330;7.312;2023-06-14T00:56:43;14.70;83.90
15483;DHT22;7843;50.330;7.312;2023-06-14T00:59:11;14.60;84.30
15483;DHT22;7843;50.330;7.312;2023-06-14T01:01:37;14.60;84.20
15483;DHT22;7843;50.330;7.312;2023-06-14T01:04:05;14.60;84.50
15483;DHT22;7843;50.330;7.312;2023-06-14T01:09:40;14.50;84.30
15483;DHT22;7843;50.330;7.312;2023-06-14T01:13:03;14.50;84.60
15483;DHT22;7843;50.330;7.312;2023-06-14T01:15:09;14.50;84.70
15483;DHT22;7843;50.330;7.312;2023-06-14T01:17:37;14.30;85.20
15483;DHT22;7843;50.330;7.312;2023-06-14T01:20:11;14.40;85.20
15483;DHT22;7843;50.330;7.312;2023-06-14T01:22:53;14.30;85.10
15483;DHT22;7843;50.330;7.312;2023-06-14T01:25:21;14.30;85.80
15483;DHT22;7843;50.330;7.312;2023-06-14T01:30:25;14.20;85.60
15483;DHT22;7843;50.330;7.312;2023-06-14T01:32:54;14.20;85.60
15483;DHT22;7843;50.330;7.312;2023-06-14T01:35:22;14.20;85.70
15483;DHT22;7843;50.330;7.312;2023-06-14T01:37:49;14.30;85.70
15483;DHT22;7843;50.330;7.312;2023-06-14T01:40:17;14.20;85.70
15483;DHT22;7843;50.330;7.312;2023-06-14T01:42:47;14.30;85.80
15483;DHT22;7843;50.330;7.312;2023-06-14T01:45:15;14.30;85.90
15483;DHT22;7843;50.330;7.312;2023-06-14T01:47:44;14.20;85.80
15483;DHT22;7843;50.330;7.312;2023-06-14T01:50:13;14.20;86.20
15483;DHT22;7843;50.330;7.312;2023-06-14T01:52:40;14.10;86.00
15483;DHT22;7843;50.330;7.312;2023-06-14T01:55:07;14.00;86.30
15483;DHT22;7843;50.330;7.312;2023-06-14T01:57:34;13.90;86.60
15483;DHT22;7843;50.330;7.312;2023-06-14T02:00:01;13.90;86.80
15483;DHT22;7843;50.330;7.312;2023-06-14T02:02:30;14.00;86.70
15483;DHT22;7843;50.330;7.312;2023-06-14T02:04:57;13.90;86.50
15483;DHT22;7843;50.330;7.312;2023-06-14T02:07:24;13.90;86.80
15483;DHT22;7843;50.330;7.312;2023-06-14T02:09:51;13.90;86.60
15483;DHT22;7843;50.330;7.312;2023-06-14T02:12:18;13.90;86.70
15483;DHT22;7843;50.330;7.312;2023-06-14T02:14:44;13.80;86.80
15483;DHT22;7843;50.330;7.312;2023-06-14T02:17:11;13.80;87.00
15483;DHT22;7843;50.330;7.312;2023-06-14T02:19:38;13.80;87.20
15483;DHT22;7843;50.330;7.312;2023-06-14T02:22:05;13.80;86.80
15483;DHT22;7843;50.330;7.312;2023-06-14T02:24:31;13.80;87.10
15483;DHT22;7843;50.330;7.312;2023-06-14T02:26:58;13.80;87.40
15483;DHT22;7843;50.330;7.312;2023-06-14T02:29:25;13.80;87.40
15483;DHT22;7843;50.330;7.312;2023-06-14T02:31:52;13.80;87.70
15483;DHT22;7843;50.330;7.312;2023-06-14T02:34:18;13.80;87.30
15483;DHT22;7843;50.330;7.312;2023-06-14T02:36:47;13.80;87.20
15483;DHT22;7843;50.330;7.312;2023-06-14T02:39:14;13.70;87.50
15483;DHT22;7843;50.330;7.312;2023-06-14T02:41:41;13.70;87.80
15483;DHT22;7843;50.330;7.312;2023-06-14T02:44:09;13.60;88.10
15483;DHT22;7843;50.330;7.312;2023-06-14T02:46:38;13.60;87.90
15483;DHT22;7843;50.330;7.312;2023-06-14T02:49:05;13.60;87.90
15483;DHT22;7843;50.330;7.312;2023-06-14T02:51:31;13.50;88.30
15483;DHT22;7843;50.330;7.312;2023-06-14T02:53:58;13.60;88.30
15483;DHT22;7843;50.330;7.312;2023-06-14T02:56:25;13.50;88.40
15483;DHT22;7843;50.330;7.312;2023-06-14T02:58:52;13.50;88.40
15483;DHT22;7843;50.330;7.312;2023-06-14T03:01:19;13.60;88.30
15483;DHT22;7843;50.330;7.312;2023-06-14T03:03:47;13.60;88.30
15483;DHT22;7843;50.330;7.312;2023-06-14T03:06:14;13.60;88.40
15483;DHT22;7843;50.330;7.312;2023-06-14T03:08:43;13.50;88.70
15483;DHT22;7843;50.330;7.312;2023-06-14T03:11:10;13.40;88.70
15483;DHT22;7843;50.330;7.312;2023-06-14T03:13:37;13.40;88.90
15483;DHT22;7843;50.330;7.312;2023-06-14T03:16:05;13.30;88.80
15483;DHT22;7843;50.330;7.312;2023-06-14T03:18:31;13.20;89.40
15483;DHT22;7843;50.330;7.312;2023-06-14T03:21:02;13.20;89.50
15483;DHT22;7843;50.330;7.312;2023-06-14T03:23:29;13.20;89.50
15483;DHT22;7843;50.330;7.312;2023-06-14T03:25:56;13.30;89.40
15483;DHT22;7843;50.330;7.312;2023-06-14T03:28:23;13.20;89.40
15483;DHT22;7843;50.330;7.312;2023-06-14T03:30:50;13.20;89.20
15483;DHT22;7843;50.330;7.312;2023-06-14T03:33:17;13.20;89.40
15483;DHT22;7843;50.330;7.312;2023-06-14T03:35:44;13.30;89.70
15483;DHT22;7843;50.330;7.312;2023-06-14T03:38:11;13.20;89.30
15483;DHT22;7843;50.330;7.312;2023-06-14T03:40:38;13.20;89.90
15483;DHT22;7843;50.330;7.312;2023-06-14T03:43:04;13.20;89.70
15483;DHT22;7843;50.330;7.312;2023-06-14T03:45:31;13.30;89.90
15483;DHT22;7843;50.330;7.312;2023-06-14T03:47:58;13.20;90.10
15483;DHT22;7843;50.330;7.312;2023-06-14T03:50:27;13.20;90.10
15483;DHT22;7843;50.330;7.312;2023-06-14T03:52:53;13.10;90.30
15483;DHT22;7843;50.330;7.312;2023-06-14T03:55:20;13.20;90.40
15483;DHT22;7843;50.330;7.312;2023-06-14T03:58:07;13.20;90.30
15483;DHT22;7843;50.330;7.312;2023-06-14T04:00:34;13.20;90.50
15483;DHT22;7843;50.330;7.312;2023-06-14T04:03:02;13.20;90.70
15483;DHT22;7843;50.330;7.312;2023-06-14T04:05:31;13.30;90.60
15483;DHT22;7843;50.330;7.312;2023-06-14T04:07:58;13.30;90.90
15483;DHT22;7843;50.330;7.312;2023-06-14T04:10:27;13.30;90.60
15483;DHT22;7843;50.330;7.312;2023-06-14T04:12:54;13.40;90.50
15483;DHT22;7843;50.330;7.312;2023-06-14T04:15:21;13.50;90.30
15483;DHT22;7843;50.330;7.312;2023-06-14T04:17:48;13.50;90.30
15483;DHT22;7843;50.330;7.312;2023-06-14T04:20:15;13.50;90.70
15483;DHT22;7843;50.330;7.312;2023-06-14T04:22:42;13.50;90.80
15483;DHT22;7843;50.330;7.312;2023-06-14T04:25:09;13.60;90.80
15483;DHT22;7843;50.330;7.312;2023-06-14T04:27:37;13.70;90.40
15483;DHT22;7843;50.330;7.312;2023-06-14T04:30:04;13.80;90.50
15483;DHT22;7843;50.330;7.312;2023-06-14T04:32:32;13.90;89.90
15483;DHT22;7843;50.330;7.312;2023-06-14T04:35:00;14.00;89.60
15483;DHT22;7843;50.330;7.312;2023-06-14T04:37:30;14.00;89.80
15483;DHT22;7843;50.330;7.312;2023-06-14T04:39:57;14.10;89.90
15483;DHT22;7843;50.330;7.312;2023-06-14T04:42:24;14.20;90.00
15483;DHT22;7843;50.330;7.312;2023-06-14T04:44:57;14.30;90.50
15483;DHT22;7843;50.330;7.312;2023-06-14T04:47:25;14.30;90.10
15483;DHT22;7843;50.330;7.312;2023-06-14T04:49:58;14.50;89.90
15483;DHT22;7843;50.330;7.312;2023-06-14T04:52:26;14.60;90.00
15483;DHT22;7843;50.330;7.312;2023-06-14T04:54:53;14.70;89.30
15483;DHT22;7843;50.330;7.312;2023-06-14T04:57:21;14.80;89.40
15483;DHT22;7843;50.330;7.312;2023-06-14T04:59:48;14.90;89.10
15483;DHT22;7843;50.330;7.312;2023-06-14T05:02:24;14.90;89.00
15483;DHT22;7843;50.330;7.312;2023-06-14T05:04:52;15.10;88.70
15483;DHT22;7843;50.330;7.312;2023-06-14T05:07:19;15.10;89.50
15483;DHT22;7843;50.330;7.312;2023-06-14T05:09:46;15.30;89.30
15483;DHT22;7843;50.330;7.312;2023-06-14T05:12:13;15.40;88.50
15483;DHT22;7843;50.330;7.312;2023-06-14T05:14:40;15.50;87.80
15483;DHT22;7843;50.330;7.312;2023-06-14T05:17:07;15.60;87.60
15483;DHT22;7843;50.330;7.312;2023-06-14T05:19:34;15.70;88.10
15483;DHT22;7843;50.330;7.312;2023-06-14T05:22:01;15.80;88.30
15483;DHT22;7843;50.330;7.312;2023-06-14T05:24:29;15.90;88.20
15483;DHT22;7843;50.330;7.312;2023-06-14T05:26:57;16.00;87.30
15483;DHT22;7843;50.330;7.312;2023-06-14T05:29:23;16.20;87.70
15483;DHT22;7843;50.330;7.312;2023-06-14T05:31:50;16.30;86.00
15483;DHT22;7843;50.330;7.312;2023-06-14T05:34:17;16.40;85.30
15483;DHT22;7843;50.330;7.312;2023-06-14T05:36:44;16.60;84.80
15483;DHT22;7843;50.330;7.312;2023-06-14T05:39:10;16.80;83.10
15483;DHT22;7843;50.330;7.312;2023-06-14T05:41:37;16.90;82.30
15483;DHT22;7843;50.330;7.312;2023-06-14T05:44:04;17.10;82.30
15483;DHT22;7843;50.330;7.312;2023-06-14T05:46:31;17.30;79.20
15483;DHT22;7843;50.330;7.312;2023-06-14T05:48:57;17.40;80.50
15483;DHT22;7843;50.330;7.312;2023-06-14T05:51:24;17.50;79.90
15483;DHT22;7843;50.330;7.312;2023-06-14T05:53:54;17.70;79.30
15483;DHT22;7843;50.330;7.312;2023-06-14T05:56:21;17.80;78.10
15483;DHT22;7843;50.330;7.312;2023-06-14T05:58:47;18.00;78.00
15483;DHT22;7843;50.330;7.312;2023-06-14T06:01:14;18.10;75.30
15483;DHT22;7843;50.330;7.312;2023-06-14T06:03:41;18.20;74.80
15483;DHT22;7843;50.330;7.312;2023-06-14T06:06:12;18.30;74.20
15483;DHT22;7843;50.330;7.312;2023-06-14T06:08:39;18.40;74.10
15483;DHT22;7843;50.330;7.312;2023-06-14T06:11:07;18.50;75.20
15483;DHT22;7843;50.330;7.312;2023-06-14T06:13:34;18.60;75.30
15483;DHT22;7843;50.330;7.312;2023-06-14T06:16:02;18.70;74.10
15483;DHT22;7843;50.330;7.312;2023-06-14T06:18:29;18.70;73.50
15483;DHT22;7843;50.330;7.312;2023-06-14T06:20:56;18.80;72.80
15483;DHT22;7843;50.330;7.312;2023-06-14T06:23:23;18.90;73.50
15483;DHT22;7843;50.330;7.312;2023-06-14T06:25:50;19.00;72.50
15483;DHT22;7843;50.330;7.312;2023-06-14T06:28:17;19.10;72.60
15483;DHT22;7843;50.330;7.312;2023-06-14T06:30:43;19.20;71.60
15483;DHT22;7843;50.330;7.312;2023-06-14T06:33:10;19.20;72.10
15483;DHT22;7843;50.330;7.312;2023-06-14T06:35:37;19.20;72.80
15483;DHT22;7843;50.330;7.312;2023-06-14T06:38:04;19.40;73.40
15483;DHT22;7843;50.330;7.312;2023-06-14T06:40:31;19.50;72.70
15483;DHT22;7843;50.330;7.312;2023-06-14T06:42:57;19.60;71.90
15483;DHT22;7843;50.330;7.312;2023-06-14T06:45:24;19.60;72.10
15483;DHT22;7843;50.330;7.312;2023-06-14T06:47:51;19.70;71.60
15483;DHT22;7843;50.330;7.312;2023-06-14T06:50:18;19.80;71.70
15483;DHT22;7843;50.330;7.312;2023-06-14T06:52:46;19.90;71.40
15483;DHT22;7843;50.330;7.312;2023-06-14T06:55:13;19.90;71.70
15483;DHT22;7843;50.330;7.312;2023-06-14T06:57:40;19.90;71.90
15483;DHT22;7843;50.330;7.312;2023-06-14T07:00:07;20.00;70.80
15483;DHT22;7843;50.330;7.312;2023-06-14T07:02:36;20.10;70.50
15483;DHT22;7843;50.330;7.312;2023-06-14T07:05:03;20.20;71.40
15483;DHT22;7843;50.330;7.312;2023-06-14T07:07:31;20.30;71.10
15483;DHT22;7843;50.330;7.312;2023-06-14T07:09:57;20.40;69.30
15483;DHT22;7843;50.330;7.312;2023-06-14T07:12:24;20.50;70.00
15483;DHT22;7843;50.330;7.312;2023-06-14T07:14:51;20.60;69.70
15483;DHT22;7843;50.330;7.312;2023-06-14T07:17:18;20.70;69.70
15483;DHT22;7843;50.330;7.312;2023-06-14T07:19:44;20.80;69.30
15483;DHT22;7843;50.330;7.312;2023-06-14T07:22:11;20.80;67.70
15483;DHT22;7843;50.330;7.312;2023-06-14T07:24:38;20.90;67.30
15483;DHT22;7843;50.330;7.312;2023-06-14T07:27:07;20.90;67.40
15483;DHT22;7843;50.330;7.312;2023-06-14T07:29:34;21.00;67.80
15483;DHT22;7843;50.330;7.312;2023-06-14T07:32:01;21.20;67.50
15483;DHT22;7843;50.330;7.312;2023-06-14T07:34:28;21.30;66.20
15483;DHT22;7843;50.330;7.312;2023-06-14T07:36:54;21.30;65.40
15483;DHT22;7843;50.330;7.312;2023-06-14T07:39:21;21.40;65.00
15483;DHT22;7843;50.330;7.312;2023-06-14T07:41:48;21.40;64.10
15483;DHT22;7843;50.330;7.312;2023-06-14T07:44:15;21.40;64.60
15483;DHT22;7843;50.330;7.312;2023-06-14T07:46:42;21.60;64.90
15483;DHT22;7843;50.330;7.312;2023-06-14T07:49:09;21.50;64.90
15483;DHT22;7843;50.330;7.312;2023-06-14T07:51:36;21.50;64.20
15483;DHT22;7843;50.330;7.312;2023-06-14T07:54:04;21.50;64.30
15483;DHT22;7843;50.330;7.312;2023-06-14T07:56:34;21.50;64.10
15483;DHT22;7843;50.330;7.312;2023-06-14T07:59:02;21.60;63.70
15483;DHT22;7843;50.330;7.312;2023-06-14T08:01:29;21.80;63.20
15483;DHT22;7843;50.330;7.312;2023-06-14T08:03:55;21.80;63.20
15483;DHT22;7843;50.330;7.312;2023-06-14T08:06:22;21.80;64.60
15483;DHT22;7843;50.330;7.312;2023-06-14T08:08:49;21.80;63.30
15483;DHT22;7843;50.330;7.312;2023-06-14T08:11:15;22.00;64.50
15483;DHT22;7843;50.330;7.312;2023-06-14T08:13:42;22.10;63.10
15483;DHT22;7843;50.330;7.312;2023-06-14T08:16:09;22.10;62.90
15483;DHT22;7843;50.330;7.312;2023-06-14T08:18:36;22.20;62.80
15483;DHT22;7843;50.330;7.312;2023-06-14T08:21:03;22.30;62.80
15483;DHT22;7843;50.330;7.312;2023-06-14T08:23:30;22.40;62.20
15483;DHT22;7843;50.330;7.312;2023-06-14T08:25:57;22.50;61.60
15483;DHT22;7843;50.330;7.312;2023-06-14T08:28:24;22.60;60.90
15483;DHT22;7843;50.330;7.312;2023-06-14T08:30:51;22.50;61.90
15483;DHT22;7843;50.330;7.312;2023-06-14T08:33:17;22.50;61.50
15483;DHT22;7843;50.330;7.312;2023-06-14T08:35:44;22.60;61.60
15483;DHT22;7843;50.330;7.312;2023-06-14T08:38:11;22.70;61.80
15483;DHT22;7843;50.330;7.312;2023-06-14T08:40:39;22.60;62.20
15483;DHT22;7843;50.330;7.312;2023-06-14T08:43:06;22.60;61.20
15483;DHT22;7843;50.330;7.312;2023-06-14T08:45:33;22.70;61.30
15483;DHT22;7843;50.330;7.312;2023-06-14T08:48:01;22.80;61.50
15483;DHT22;7843;50.330;7.312;2023-06-14T08:50:28;22.90;62.20
15483;DHT22;7843;50.330;7.312;2023-06-14T08:53:00;23.10;61.90
15483;DHT22;7843;50.330;7.312;2023-06-14T08:55:29;23.10;61.10
15483;DHT22;7843;50.330;7.312;2023-06-14T08:57:57;23.10;59.90
15483;DHT22;7843;50.330;7.312;2023-06-14T09:00:26;23.20;60.40
15483;DHT22;7843;50.330;7.312;2023-06-14T09:02:53;23.40;59.70
15483;DHT22;7843;50.330;7.312;2023-06-14T09:05:27;23.60;59.50
15483;DHT22;7843;50.330;7.312;2023-06-14T09:07:54;23.60;58.30
15483;DHT22;7843;50.330;7.312;2023-06-14T09:10:22;23.60;57.70
15483;DHT22;7843;50.330;7.312;2023-06-14T09:12:49;23.70;58.70
15483;DHT22;7843;50.330;7.312;2023-06-14T09:15:17;23.70;56.90
15483;DHT22;7843;50.330;7.312;2023-06-14T09:17:44;23.70;57.30
15483;DHT22;7843;50.330;7.312;2023-06-14T09:20:11;23.80;57.80
15483;DHT22;7843;50.330;7.312;2023-06-14T09:22:45;23.90;57.20
15483;DHT22;7843;50.330;7.312;2023-06-14T09:25:12;23.90;56.00
15483;DHT22;7843;50.330;7.312;2023-06-14T09:27:47;23.90;57.40
15483;DHT22;7843;50.330;7.312;2023-06-14T09:30:14;23.90;56.40
15483;DHT22;7843;50.330;7.312;2023-06-14T09:32:41;24.00;57.00
15483;DHT22;7843;50.330;7.312;2023-06-14T09:35:08;24.10;57.60
15483;DHT22;7843;50.330;7.312;2023-06-14T09:37:36;24.10;57.10
15483;DHT22;7843;50.330;7.312;2023-06-14T09:40:05;24.00;57.00
15483;DHT22;7843;50.330;7.312;2023-06-14T09:42:32;24.20;58.30
15483;DHT22;7843;50.330;7.312;2023-06-14T09:45:02;24.30;57.00
15483;DHT22;7843;50.330;7.312;2023-06-14T09:47:30;24.40;57.40
15483;DHT22;7843;50.330;7.312;2023-06-14T09:49:57;24.50;56.70
15483;DHT22;7843;50.330;7.312;2023-06-14T09:52:24;24.50;57.00
15483;DHT22;7843;50.330;7.312;2023-06-14T09:54:54;24.50;57.00
15483;DHT22;7843;50.330;7.312;2023-06-14T09:57:23;24.70;56.70
15483;DHT22;7843;50.330;7.312;2023-06-14T09:59:53;24.80;57.80
15483;DHT22;7843;50.330;7.312;2023-06-14T10:02:26;24.80;56.70
15483;DHT22;7843;50.330;7.312;2023-06-14T10:04:57;24.70;56.60
15483;DHT22;7843;50.330;7.312;2023-06-14T10:07:30;24.80;57.00
15483;DHT22;7843;50.330;7.312;2023-06-14T10:09:58;24.80;57.50
15483;DHT22;7843;50.330;7.312;2023-06-14T10:12:26;24.80;57.80
15483;DHT22;7843;50.330;7.312;2023-06-14T10:14:53;25.00;57.20
15483;DHT22;7843;50.330;7.312;2023-06-14T10:17:38;25.00;56.10
15483;DHT22;7843;50.330;7.312;2023-06-14T10:20:19;25.10;55.30
15483;DHT22;7843;50.330;7.312;2023-06-14T10:22:51;25.20;56.50
15483;DHT22;7843;50.330;7.312;2023-06-14T10:25:29;25.30;55.00
15483;DHT22;7843;50.330;7.312;2023-06-14T10:28:18;25.40;55.10
15483;DHT22;7843;50.330;7.312;2023-06-14T10:31:06;25.30;54.00
15483;DHT22;7843;50.330;7.312;2023-06-14T10:33:34;25.30;55.60
15483;DHT22;7843;50.330;7.312;2023-06-14T10:39:07;25.50;55.90
15483;DHT22;7843;50.330;7.312;2023-06-14T10:41:39;25.60;55.70
15483;DHT22;7843;50.330;7.312;2023-06-14T10:49:19;25.70;54.10
15483;DHT22;7843;50.330;7.312;2023-06-14T10:51:57;25.80;55.30
15483;DHT22;7843;50.330;7.312;2023-06-14T10:54:27;26.00;55.40
15483;DHT22;7843;50.330;7.312;2023-06-14T10:56:54;26.20;54.00
15483;DHT22;7843;50.330;7.312;2023-06-14T10:59:21;26.20;54.30
15483;DHT22;7843;50.330;7.312;2023-06-14T11:04:50;26.40;53.70
15483;DHT22;7843;50.330;7.312;2023-06-14T11:12:52;26.50;53.80
15483;DHT22;7843;50.330;7.312;2023-06-14T11:15:27;26.70;53.70
15483;DHT22;7843;50.330;7.312;2023-06-14T11:17:54;26.80;53.50
15483;DHT22;7843;50.330;7.312;2023-06-14T11:20:27;27.00;53.70
15483;DHT22;7843;50.330;7.312;2023-06-14T11:22:54;27.30;52.30
15483;DHT22;7843;50.330;7.312;2023-06-14T11:25:21;27.30;51.90
15483;DHT22;7843;50.330;7.312;2023-06-14T11:27:49;27.40;52.80
15483;DHT22;7843;50.330;7.312;2023-06-14T11:30:17;27.10;52.60
15483;DHT22;7843;50.330;7.312;2023-06-14T11:32:47;27.20;53.10
15483;DHT22;7843;50.330;7.312;2023-06-14T11:35:15;27.40;53.00
15483;DHT22;7843;50.330;7.312;2023-06-14T11:37:42;27.70;52.90
15483;DHT22;7843;50.330;7.312;2023-06-14T11:40:11;27.90;51.70
15483;DHT22;7843;50.330;7.312;2023-06-14T11:42:40;28.30;51.60
15483;DHT22;7843;50.330;7.312;2023-06-14T11:45:08;28.30;50.50
15483;DHT22;7843;50.330;7.312;2023-06-14T11:47:36;27.90;50.90
15483;DHT22;7843;50.330;7.312;2023-06-14T11:50:04;27.70;51.60
15483;DHT22;7843;50.330;7.312;2023-06-14T11:52:32;27.60;51.90
15483;DHT22;7843;50.330;7.312;2023-06-14T11:54:59;27.30;53.50
15483;DHT22;7843;50.330;7.312;2023-06-14T11:57:26;27.10;53.80
15483;DHT22;7843;50.330;7.312;2023-06-14T11:59:55;26.90;54.40
15483;DHT22;7843;50.330;7.312;2023-06-14T12:02:22;27.40;54.40
15483;DHT22;7843;50.330;7.312;2023-06-14T12:04:50;28.00;52.50
15483;DHT22;7843;50.330;7.312;2023-06-14T12:07:18;28.70;52.10
15483;DHT22;7843;50.330;7.312;2023-06-14T12:12:25;29.40;50.00
15483;DHT22;7843;50.330;7.312;2023-06-14T12:14:53;29.70;49.90
15483;DHT22;7843;50.330;7.312;2023-06-14T12:17:20;29.90;49.40
15483;DHT22;7843;50.330;7.312;2023-06-14T12:19:46;29.90;49.30
15483;DHT22;7843;50.330;7.312;2023-06-14T12:22:14;30.00;49.60
15483;DHT22;7843;50.330;7.312;2023-06-14T12:24:45;30.10;48.20
15483;DHT22;7843;50.330;7.312;2023-06-14T12:27:12;30.00;48.70
15483;DHT22;7843;50.330;7.312;2023-06-14T12:29:42;30.10;49.00
15483;DHT22;7843;50.330;7.312;2023-06-14T12:32:12;30.30;48.50
15483;DHT22;7843;50.330;7.312;2023-06-14T12:34:38;30.40;49.10
15483;DHT22;7843;50.330;7.312;2023-06-14T12:37:05;30.60;47.30
15483;DHT22;7843;50.330;7.312;2023-06-14T12:39:33;30.70;47.80
15483;DHT22;7843;50.330;7.312;2023-06-14T12:41:59;30.80;48.50
15483;DHT22;7843;50.330;7.312;2023-06-14T12:44:26;30.80;47.50
15483;DHT22;7843;50.330;7.312;2023-06-14T12:46:53;30.80;47.30
15483;DHT22;7843;50.330;7.312;2023-06-14T12:49:21;30.70;48.00
15483;DHT22;7843;50.330;7.312;2023-06-14T12:51:47;31.10;47.50
15483;DHT22;7843;50.330;7.312;2023-06-14T12:54:14;31.00;47.30
15483;DHT22;7843;50.330;7.312;2023-06-14T12:56:41;31.10;48.00
15483;DHT22;7843;50.330;7.312;2023-06-14T12:59:09;31.30;47.60
15483;DHT22;7843;50.330;7.312;2023-06-14T13:01:38;31.60;46.40
15483;DHT22;7843;50.330;7.312;2023-06-14T13:04:06;31.30;46.40
15483;DHT22;7843;50.330;7.312;2023-06-14T13:06:33;31.40;46.90
15483;DHT22;7843;50.330;7.312;2023-06-14T13:09:00;31.60;46.40
15483;DHT22;7843;50.330;7.312;2023-06-14T13:11:27;31.80;45.90
15483;DHT22;7843;50.330;7.312;2023-06-14T13:13:54;31.80;46.20
15483;DHT22;7843;50.330;7.312;2023-06-14T13:16:20;32.00;46.50
15483;DHT22;7843;50.330;7.312;2023-06-14T13:18:47;32.00;46.10
15483;DHT22;7843;50.330;7.312;2023-06-14T13:21:14;31.90;46.40
15483;DHT22;7843;50.330;7.312;2023-06-14T13:23:41;32.00;45.70
15483;DHT22;7843;50.330;7.312;2023-06-14T13:26:08;31.90;46.00
15483;DHT22;7843;50.330;7.312;2023-06-14T13:28:35;31.80;46.10
15483;DHT22;7843;50.330;7.312;2023-06-14T13:31:01;31.90;46.00
15483;DHT22;7843;50.330;7.312;2023-06-14T13:33:28;32.00;46.10
15483;DHT22;7843;50.330;7.312;2023-06-14T13:35:55;32.10;45.60
15483;DHT22;7843;50.330;7.312;2023-06-14T13:38:22;32.10;45.80
15483;DHT22;7843;50.330;7.312;2023-06-14T13:40:48;32.00;45.20
15483;DHT22;7843;50.330;7.312;2023-06-14T13:43:15;32.20;45.60
15483;DHT22;7843;50.330;7.312;2023-06-14T13:45:42;32.10;44.30
15483;DHT22;7843;50.330;7.312;2023-06-14T13:48:08;32.00;44.90
15483;DHT22;7843;50.330;7.312;2023-06-14T13:50:35;31.90;45.20
15483;DHT22;7843;50.330;7.312;2023-06-14T13:53:02;32.10;45.20
15483;DHT22;7843;50.330;7.312;2023-06-14T13:55:29;32.10;46.10
15483;DHT22;7843;50.330;7.312;2023-06-14T13:57:56;32.20;45.80
15483;DHT22;7843;50.330;7.312;2023-06-14T14:00:23;32.00;46.10
15483;DHT22;7843;50.330;7.312;2023-06-14T14:02:50;32.10;45.70
15483;DHT22;7843;50.330;7.312;2023-06-14T14:05:17;32.10;45.60
15483;DHT22;7843;50.330;7.312;2023-06-14T14:07:44;32.10;45.30
15483;DHT22;7843;50.330;7.312;2023-06-14T14:10:10;32.00;46.00
15483;DHT22;7843;50.330;7.312;2023-06-14T14:12:39;31.90;46.10
15483;DHT22;7843;50.330;7.312;2023-06-14T14:15:06;31.80;45.20
15483;DHT22;7843;50.330;7.312;2023-06-14T14:17:39;31.70;44.70
15483;DHT22;7843;50.330;7.312;2023-06-14T14:20:07;31.50;45.10
15483;DHT22;7843;50.330;7.312;2023-06-14T14:22:34;31.40;46.30
15483;DHT22;7843;50.330;7.312;2023-06-14T14:25:00;31.30;46.50
15483;DHT22;7843;50.330;7.312;2023-06-14T14:27:27;31.30;46.40
15483;DHT22;7843;50.330;7.312;2023-06-14T14:29:54;31.10;46.10
15483;DHT22;7843;50.330;7.312;2023-06-14T14:32:20;30.90;46.90
15483;DHT22;7843;50.330;7.312;2023-06-14T14:34:47;30.70;47.10
15483;DHT22;7843;50.330;7.312;2023-06-14T14:37:14;30.80;46.80
15483;DHT22;7843;50.330;7.312;2023-06-14T14:39:41;30.80;46.90
15483;DHT22;7843;50.330;7.312;2023-06-14T14:42:08;30.90;47.00
15483;DHT22;7843;50.330;7.312;2023-06-14T14:44:35;30.70;47.20
15483;DHT22;7843;50.330;7.312;2023-06-14T14:47:02;31.00;45.30
15483;DHT22;7843;50.330;7.312;2023-06-14T14:49:32;30.90;45.80
15483;DHT22;7843;50.330;7.312;2023-06-14T14:51:58;30.90;46.70
15483;DHT22;7843;50.330;7.312;2023-06-14T14:54:28;30.40;47.10
15483;DHT22;7843;50.330;7.312;2023-06-14T14:56:55;29.40;47.70
15483;DHT22;7843;50.330;7.312;2023-06-14T14:59:22;28.70;48.20
15483;DHT22;7843;50.330;7.312;2023-06-14T15:01:49;28.60;49.30
15483;DHT22;7843;50.330;7.312;2023-06-14T15:04:17;29.00;49.70
15483;DHT22;7843;50.330;7.312;2023-06-14T15:06:44;29.40;49.20
15483;DHT22;7843;50.330;7.312;2023-06-14T15:09:10;29.50;48.60
15483;DHT22;7843;50.330;7.312;2023-06-14T15:11:37;29.40;48.70
15483;DHT22;7843;50.330;7.312;2023-06-14T15:14:04;29.40;48.60
15483;DHT22;7843;50.330;7.312;2023-06-14T15:16:30;29.60;48.00
15483;DHT22;7843;50.330;7.312;2023-06-14T15:18:57;29.50;48.50
15483;DHT22;7843;50.330;7.312;2023-06-14T15:21:24;29.10;48.10
15483;DHT22;7843;50.330;7.312;2023-06-14T15:23:51;28.30;49.20
15483;DHT22;7843;50.330;7.312;2023-06-14T15:26:20;27.60;50.50
15483;DHT22;7843;50.330;7.312;2023-06-14T15:28:47;27.30;51.60
15483;DHT22;7843;50.330;7.312;2023-06-14T15:31:13;27.60;51.50
15483;DHT22;7843;50.330;7.312;2023-06-14T15:33:40;28.00;49.90
15483;DHT22;7843;50.330;7.312;2023-06-14T15:36:07;28.20;49.40
15483;DHT22;7843;50.330;7.312;2023-06-14T15:38:35;28.30;50.40
15483;DHT22;7843;50.330;7.312;2023-06-14T15:41:02;28.50;49.60
15483;DHT22;7843;50.330;7.312;2023-06-14T15:43:29;28.50;49.90
15483;DHT22;7843;50.330;7.312;2023-06-14T15:45:56;28.10;50.30
15483;DHT22;7843;50.330;7.312;2023-06-14T15:48:23;27.50;51.30
15483;DHT22;7843;50.330;7.312;2023-06-14T15:50:50;27.00;51.90
15483;DHT22;7843;50.330;7.312;2023-06-14T15:53:16;26.90;52.90
15483;DHT22;7843;50.330;7.312;2023-06-14T15:55:43;27.20;52.50
15483;DHT22;7843;50.330;7.312;2023-06-14T15:58:10;27.50;51.80
15483;DHT22;7843;50.330;7.312;2023-06-14T16:00:36;27.80;51.30
15483;DHT22;7843;50.330;7.312;2023-06-14T16:03:03;27.90;50.20
15483;DHT22;7843;50.330;7.312;2023-06-14T16:05:30;27.90;50.30
15483;DHT22;7843;50.330;7.312;2023-06-14T16:07:57;28.00;51.70
15483;DHT22;7843;50.330;7.312;2023-06-14T16:10:23;28.00;51.30
15483;DHT22;7843;50.330;7.312;2023-06-14T16:12:50;27.90;51.30
15483;DHT22;7843;50.330;7.312;2023-06-14T16:15:17;28.00;50.40